sensor_id;sensor_type;location;lat;lon;timestamp;P1;durP1;ratioP1;P2;durP2;ratioP2
63259;SDS011;49390;51.380;0.098;2023-04-15T00:02:26;7.40;;;4.38;;
63259;SDS011;49390;51.380;0.098;2023-04-15T00:04:55;9.38;;;4.30;;
63259;SDS011;49390;51.380;0.098;2023-04-15T00:07:23;7.40;;;3.97;;
63259;SDS011;49390;51.380;0.098;2023-04-15T00:09:51;6.65;;;3.88;;
63259;SDS011;49390;51.380;0.098;2023-04-15T00:12:23;8.00;;;3.92;;
63259;SDS011;49390;51.380;0.098;2023-04-15T00:14:51;7.85;;;4.55;;
63259;SDS011;49390;51.380;0.098;2023-04-15T00:17:20;7.95;;;4.53;;
63259;SDS011;49390;51.380;0.098;2023-04-15T00:19:47;7.35;;;4.07;;
63259;SDS011;49390;51.380;0.098;2023-04-15T00:22:16;10.00;;;5.22;;
63259;SDS011;49390;51.380;0.098;2023-04-15T00:24:47;8.15;;;4.68;;
63259;SDS011;49390;51.380;0.098;2023-04-15T00:27:15;8.07;;;4.85;;
63259;SDS011;49390;51.380;0.098;2023-04-15T00:29:46;7.93;;;4.63;;
63259;SDS011;49390;51.380;0.098;2023-04-15T00:32:15;8.02;;;4.68;;
63259;SDS011;49390;51.380;0.098;2023-04-15T00:34:45;7.93;;;4.05;;
63259;SDS011;49390;51.380;0.098;2023-04-15T00:37:13;10.70;;;4.78;;
63259;SDS011;49390;51.380;0.098;2023-04-15T00:39:41;8.02;;;4.35;;
63259;SDS011;49390;51.380;0.098;2023-04-15T00:42:12;7.60;;;4.32;;
63259;SDS011;49390;51.380;0.098;2023-04-15T00:44:40;8.68;;;4.20;;
63259;SDS011;49390;51.380;0.098;2023-04-15T00:47:09;6.93;;;3.60;;
63259;SDS011;49390;51.380;0.098;2023-04-15T00:49:38;6.80;;;4.07;;
63259;SDS011;49390;51.380;0.098;2023-04-15T00:52:06;8.30;;;3.55;;
63259;SDS011;49390;51.380;0.098;2023-04-15T00:54:35;7.00;;;3.85;;
63259;SDS011;49390;51.380;0.098;2023-04-15T00:57:04;8.43;;;4.30;;
63259;SDS011;49390;51.380;0.098;2023-04-15T00:59:34;7.13;;;4.07;;
63259;SDS011;49390;51.380;0.098;2023-04-15T01:02:03;7.13;;;3.95;;
63259;SDS011;49390;51.380;0.098;2023-04-15T01:04:34;9.13;;;5.00;;
63259;SDS011;49390;51.380;0.098;2023-04-15T01:07:03;8.95;;;4.50;;
63259;SDS011;49390;51.380;0.098;2023-04-15T01:09:31;7.70;;;4.43;;
63259;SDS011;49390;51.380;0.098;2023-04-15T01:12:02;7.93;;;4.78;;
63259;SDS011;49390;51.380;0.098;2023-04-15T01:14:31;7.65;;;4.55;;
63259;SDS011;49390;51.380;0.098;2023-04-15T01:17:00;8.82;;;4.93;;
63259;SDS011;49390;51.380;0.098;2023-04-15T01:19:28;9.73;;;5.43;;
63259;SDS011;49390;51.380;0.098;2023-04-15T01:21:59;8.47;;;5.53;;
63259;SDS011;49390;51.380;0.098;2023-04-15T01:24:30;8.87;;;5.13;;
63259;SDS011;49390;51.380;0.098;2023-04-15T01:27:00;8.20;;;5.20;;
63259;SDS011;49390;51.380;0.098;2023-04-15T01:29:29;10.45;;;5.30;;
63259;SDS011;49390;51.380;0.098;2023-04-15T01:31:59;10.13;;;5.85;;
63259;SDS011;49390;51.380;0.098;2023-04-15T01:34:45;10.02;;;5.53;;
63259;SDS011;49390;51.380;0.098;2023-04-15T01:37:35;9.02;;;5.18;;
63259;SDS011;49390;51.380;0.098;2023-04-15T01:40:06;9.73;;;5.77;;
63259;SDS011;49390;51.380;0.098;2023-04-15T01:42:36;8.63;;;5.05;;
63259;SDS011;49390;51.380;0.098;2023-04-15T01:45:06;10.65;;;5.88;;
63259;SDS011;49390;51.380;0.098;2023-04-15T01:47:39;8.23;;;4.90;;
63259;SDS011;49390;51.380;0.098;2023-04-15T01:50:10;8.55;;;5.18;;
63259;SDS011;49390;51.380;0.098;2023-04-15T01:52:39;8.60;;;5.00;;
63259;SDS011;49390;51.380;0.098;2023-04-15T01:55:09;9.02;;;5.10;;
63259;SDS011;49390;51.380;0.098;2023-04-15T01:57:39;9.55;;;4.97;;
63259;SDS011;49390;51.380;0.098;2023-04-15T02:00:08;7.38;;;4.30;;
63259;SDS011;49390;51.380;0.098;2023-04-15T02:02:43;6.25;;;4.30;;
63259;SDS011;49390;51.380;0.098;2023-04-15T02:05:12;8.85;;;4.47;;
63259;SDS011;49390;51.380;0.098;2023-04-15T02:07:42;9.73;;;5.20;;
63259;SDS011;49390;51.380;0.098;2023-04-15T02:10:11;8.25;;;4.63;;
63259;SDS011;49390;51.380;0.098;2023-04-15T02:12:44;9.45;;;5.20;;
63259;SDS011;49390;51.380;0.098;2023-04-15T02:15:14;8.85;;;4.95;;
63259;SDS011;49390;51.380;0.098;2023-04-15T02:17:44;9.77;;;5.28;;
63259;SDS011;49390;51.380;0.098;2023-04-15T02:20:18;8.68;;;5.40;;
63259;SDS011;49390;51.380;0.098;2023-04-15T02:22:49;10.37;;;5.87;;
63259;SDS011;49390;51.380;0.098;2023-04-15T02:25:18;12.00;;;5.93;;
63259;SDS011;49390;51.380;0.098;2023-04-15T02:27:51;8.07;;;4.30;;
63259;SDS011;49390;51.380;0.098;2023-04-15T02:30:21;7.57;;;4.75;;
63259;SDS011;49390;51.380;0.098;2023-04-15T02:32:51;10.25;;;4.65;;
63259;SDS011;49390;51.380;0.098;2023-04-15T02:35:20;7.32;;;4.22;;
63259;SDS011;49390;51.380;0.098;2023-04-15T02:37:50;9.10;;;4.35;;
63259;SDS011;49390;51.380;0.098;2023-04-15T02:40:20;7.82;;;4.18;;
63259;SDS011;49390;51.380;0.098;2023-04-15T02:42:49;7.70;;;4.20;;
63259;SDS011;49390;51.380;0.098;2023-04-15T02:45:19;6.32;;;4.05;;
63259;SDS011;49390;51.380;0.098;2023-04-15T02:47:52;6.57;;;3.65;;
63259;SDS011;49390;51.380;0.098;2023-04-15T02:50:21;6.75;;;3.67;;
63259;SDS011;49390;51.380;0.098;2023-04-15T02:52:51;6.45;;;3.80;;
63259;SDS011;49390;51.380;0.098;2023-04-15T02:55:21;5.93;;;3.22;;
63259;SDS011;49390;51.380;0.098;2023-04-15T02:57:50;7.65;;;3.90;;
63259;SDS011;49390;51.380;0.098;2023-04-15T03:00:23;5.53;;;3.38;;
63259;SDS011;49390;51.380;0.098;2023-04-15T03:02:56;6.25;;;3.33;;
63259;SDS011;49390;51.380;0.098;2023-04-15T03:05:27;5.82;;;3.63;;
63259;SDS011;49390;51.380;0.098;2023-04-15T03:08:01;7.45;;;3.72;;
63259;SDS011;49390;51.380;0.098;2023-04-15T03:10:30;8.55;;;4.30;;
63259;SDS011;49390;51.380;0.098;2023-04-15T03:13:03;6.60;;;3.50;;
63259;SDS011;49390;51.380;0.098;2023-04-15T03:15:32;7.10;;;4.07;;
63259;SDS011;49390;51.380;0.098;2023-04-15T03:18:02;8.30;;;4.00;;
63259;SDS011;49390;51.380;0.098;2023-04-15T03:20:31;8.23;;;3.70;;
63259;SDS011;49390;51.380;0.098;2023-04-15T03:23:01;7.28;;;4.13;;
63259;SDS011;49390;51.380;0.098;2023-04-15T03:25:30;7.65;;;4.30;;
63259;SDS011;49390;51.380;0.098;2023-04-15T03:28:04;7.30;;;4.22;;
63259;SDS011;49390;51.380;0.098;2023-04-15T03:30:34;7.80;;;4.40;;
63259;SDS011;49390;51.380;0.098;2023-04-15T03:33:03;7.63;;;4.47;;
63259;SDS011;49390;51.380;0.098;2023-04-15T03:35:33;7.25;;;4.45;;
63259;SDS011;49390;51.380;0.098;2023-04-15T03:38:05;8.60;;;4.65;;
63259;SDS011;49390;51.380;0.098;2023-04-15T03:40:34;8.57;;;4.88;;
63259;SDS011;49390;51.380;0.098;2023-04-15T03:45:34;6.75;;;4.32;;
63259;SDS011;49390;51.380;0.098;2023-04-15T03:50:45;8.57;;;4.10;;
63259;SDS011;49390;51.380;0.098;2023-04-15T03:53:14;9.27;;;4.88;;
63259;SDS011;49390;51.380;0.098;2023-04-15T03:55:44;9.13;;;4.88;;
63259;SDS011;49390;51.380;0.098;2023-04-15T03:58:13;8.10;;;4.70;;
63259;SDS011;49390;51.380;0.098;2023-04-15T04:00:42;9.82;;;5.18;;
63259;SDS011;49390;51.380;0.098;2023-04-15T04:03:12;7.53;;;4.47;;
63259;SDS011;49390;51.380;0.098;2023-04-15T04:05:41;9.25;;;5.55;;
63259;SDS011;49390;51.380;0.098;2023-04-15T04:08:12;8.57;;;4.78;;
63259;SDS011;49390;51.380;0.098;2023-04-15T04:10:41;8.18;;;5.00;;
63259;SDS011;49390;51.380;0.098;2023-04-15T04:13:11;9.07;;;5.18;;
63259;SDS011;49390;51.380;0.098;2023-04-15T04:15:40;9.88;;;4.90;;
63259;SDS011;49390;51.380;0.098;2023-04-15T04:18:09;8.90;;;4.72;;
63259;SDS011;49390;51.380;0.098;2023-04-15T04:20:38;7.93;;;4.50;;
63259;SDS011;49390;51.380;0.098;2023-04-15T04:23:12;9.80;;;5.40;;
63259;SDS011;49390;51.380;0.098;2023-04-15T04:25:41;8.98;;;5.35;;
63259;SDS011;49390;51.380;0.098;2023-04-15T04:28:11;9.93;;;5.30;;
63259;SDS011;49390;51.380;0.098;2023-04-15T04:30:40;9.10;;;5.47;;
63259;SDS011;49390;51.380;0.098;2023-04-15T04:33:09;8.82;;;5.10;;
63259;SDS011;49390;51.380;0.098;2023-04-15T04:35:39;9.05;;;5.15;;
63259;SDS011;49390;51.380;0.098;2023-04-15T04:38:08;12.35;;;4.78;;
63259;SDS011;49390;51.380;0.098;2023-04-15T04:40:38;8.38;;;4.93;;
63259;SDS011;49390;51.380;0.098;2023-04-15T04:43:07;8.68;;;4.97;;
63259;SDS011;49390;51.380;0.098;2023-04-15T04:45:37;10.07;;;4.78;;
63259;SDS011;49390;51.380;0.098;2023-04-15T04:48:07;9.88;;;5.13;;
63259;SDS011;49390;51.380;0.098;2023-04-15T04:50:37;9.00;;;4.85;;
63259;SDS011;49390;51.380;0.098;2023-04-15T04:53:07;8.23;;;4.35;;
63259;SDS011;49390;51.380;0.098;2023-04-15T04:55:36;8.52;;;4.72;;
63259;SDS011;49390;51.380;0.098;2023-04-15T04:58:05;8.27;;;4.65;;
63259;SDS011;49390;51.380;0.098;2023-04-15T05:00:36;8.95;;;5.15;;
63259;SDS011;49390;51.380;0.098;2023-04-15T05:03:14;9.52;;;5.07;;
63259;SDS011;49390;51.380;0.098;2023-04-15T05:05:43;8.82;;;4.85;;
63259;SDS011;49390;51.380;0.098;2023-04-15T05:08:12;9.55;;;4.80;;
63259;SDS011;49390;51.380;0.098;2023-04-15T05:10:41;7.95;;;4.43;;
63259;SDS011;49390;51.380;0.098;2023-04-15T05:13:11;8.98;;;4.80;;
63259;SDS011;49390;51.380;0.098;2023-04-15T05:15:40;7.93;;;4.40;;
63259;SDS011;49390;51.380;0.098;2023-04-15T05:18:11;8.48;;;4.55;;
63259;SDS011;49390;51.380;0.098;2023-04-15T05:20:40;8.40;;;4.78;;
63259;SDS011;49390;51.380;0.098;2023-04-15T05:23:09;8.95;;;5.05;;
63259;SDS011;49390;51.380;0.098;2023-04-15T05:25:39;8.13;;;4.85;;
63259;SDS011;49390;51.380;0.098;2023-04-15T05:28:08;7.75;;;4.57;;
63259;SDS011;49390;51.380;0.098;2023-04-15T05:30:40;7.68;;;4.38;;
63259;SDS011;49390;51.380;0.098;2023-04-15T05:33:09;8.45;;;4.65;;
63259;SDS011;49390;51.380;0.098;2023-04-15T05:35:39;8.23;;;4.53;;
63259;SDS011;49390;51.380;0.098;2023-04-15T05:38:09;9.20;;;5.03;;
63259;SDS011;49390;51.380;0.098;2023-04-15T05:40:38;9.48;;;5.07;;
63259;SDS011;49390;51.380;0.098;2023-04-15T05:45:38;9.57;;;5.57;;
63259;SDS011;49390;51.380;0.098;2023-04-15T05:48:08;11.20;;;5.70;;
63259;SDS011;49390;51.380;0.098;2023-04-15T05:50:39;10.07;;;5.68;;
63259;SDS011;49390;51.380;0.098;2023-04-15T05:53:10;11.90;;;6.05;;
63259;SDS011;49390;51.380;0.098;2023-04-15T05:55:39;11.60;;;6.30;;
63259;SDS011;49390;51.380;0.098;2023-04-15T05:58:08;12.57;;;6.40;;
63259;SDS011;49390;51.380;0.098;2023-04-15T06:00:40;12.48;;;6.53;;
63259;SDS011;49390;51.380;0.098;2023-04-15T06:03:10;11.50;;;6.60;;
63259;SDS011;49390;51.380;0.098;2023-04-15T06:05:40;12.02;;;6.78;;
63259;SDS011;49390;51.380;0.098;2023-04-15T06:08:09;12.35;;;6.47;;
63259;SDS011;49390;51.380;0.098;2023-04-15T06:10:38;13.65;;;6.63;;
63259;SDS011;49390;51.380;0.098;2023-04-15T06:13:08;14.13;;;7.43;;
63259;SDS011;49390;51.380;0.098;2023-04-15T06:15:37;11.38;;;6.63;;
63259;SDS011;49390;51.380;0.098;2023-04-15T06:18:09;12.45;;;6.90;;
63259;SDS011;49390;51.380;0.098;2023-04-15T06:20:39;11.45;;;6.38;;
63259;SDS011;49390;51.380;0.098;2023-04-15T06:23:09;14.15;;;6.80;;
63259;SDS011;49390;51.380;0.098;2023-04-15T06:25:38;11.75;;;6.60;;
63259;SDS011;49390;51.380;0.098;2023-04-15T06:28:08;9.43;;;5.63;;
63259;SDS011;49390;51.380;0.098;2023-04-15T06:30:37;11.30;;;5.70;;
63259;SDS011;49390;51.380;0.098;2023-04-15T06:33:06;10.82;;;6.07;;
63259;SDS011;49390;51.380;0.098;2023-04-15T06:35:36;11.75;;;6.00;;
63259;SDS011;49390;51.380;0.098;2023-04-15T06:38:05;10.25;;;5.45;;
63259;SDS011;49390;51.380;0.098;2023-04-15T06:40:34;10.38;;;6.13;;
63259;SDS011;49390;51.380;0.098;2023-04-15T06:43:04;10.70;;;5.90;;
63259;SDS011;49390;51.380;0.098;2023-04-15T06:45:34;10.77;;;5.85;;
63259;SDS011;49390;51.380;0.098;2023-04-15T06:48:06;10.20;;;5.50;;
63259;SDS011;49390;51.380;0.098;2023-04-15T06:50:35;11.95;;;6.35;;
63259;SDS011;49390;51.380;0.098;2023-04-15T06:53:04;10.40;;;5.88;;
63259;SDS011;49390;51.380;0.098;2023-04-15T06:55:34;10.10;;;5.80;;
63259;SDS011;49390;51.380;0.098;2023-04-15T06:58:06;9.48;;;5.50;;
63259;SDS011;49390;51.380;0.098;2023-04-15T07:00:35;8.68;;;5.10;;
63259;SDS011;49390;51.380;0.098;2023-04-15T07:03:06;9.25;;;5.25;;
63259;SDS011;49390;51.380;0.098;2023-04-15T07:05:38;9.57;;;6.15;;
63259;SDS011;49390;51.380;0.098;2023-04-15T07:08:08;9.73;;;5.97;;
63259;SDS011;49390;51.380;0.098;2023-04-15T07:10:37;10.10;;;5.72;;
63259;SDS011;49390;51.380;0.098;2023-04-15T07:13:09;10.38;;;5.80;;
63259;SDS011;49390;51.380;0.098;2023-04-15T07:15:41;9.98;;;5.40;;
63259;SDS011;49390;51.380;0.098;2023-04-15T07:18:11;9.00;;;5.22;;
63259;SDS011;49390;51.380;0.098;2023-04-15T07:20:41;9.65;;;5.43;;
63259;SDS011;49390;51.380;0.098;2023-04-15T07:23:11;9.82;;;5.88;;
63259;SDS011;49390;51.380;0.098;2023-04-15T07:25:40;8.75;;;5.75;;
63259;SDS011;49390;51.380;0.098;2023-04-15T07:28:12;10.05;;;5.63;;
63259;SDS011;49390;51.380;0.098;2023-04-15T07:30:41;8.43;;;4.75;;
63259;SDS011;49390;51.380;0.098;2023-04-15T07:33:11;8.75;;;5.50;;
63259;SDS011;49390;51.380;0.098;2023-04-15T07:35:40;9.68;;;5.45;;
63259;SDS011;49390;51.380;0.098;2023-04-15T07:38:15;9.50;;;5.47;;
63259;SDS011;49390;51.380;0.098;2023-04-15T07:40:45;9.35;;;5.50;;
63259;SDS011;49390;51.380;0.098;2023-04-15T07:43:14;8.27;;;5.15;;
63259;SDS011;49390;51.380;0.098;2023-04-15T07:45:50;9.02;;;5.40;;
63259;SDS011;49390;51.380;0.098;2023-04-15T07:48:19;9.63;;;5.85;;
63259;SDS011;49390;51.380;0.098;2023-04-15T07:50:53;9.82;;;5.80;;
63259;SDS011;49390;51.380;0.098;2023-04-15T07:53:22;9.98;;;5.63;;
63259;SDS011;49390;51.380;0.098;2023-04-15T07:55:52;10.20;;;6.00;;
63259;SDS011;49390;51.380;0.098;2023-04-15T07:58:21;10.25;;;6.13;;
63259;SDS011;49390;51.380;0.098;2023-04-15T08:00:50;10.73;;;6.28;;
63259;SDS011;49390;51.380;0.098;2023-04-15T08:03:20;10.52;;;5.85;;
63259;SDS011;49390;51.380;0.098;2023-04-15T08:05:50;12.38;;;6.40;;
63259;SDS011;49390;51.380;0.098;2023-04-15T08:08:19;9.05;;;5.60;;
63259;SDS011;49390;51.380;0.098;2023-04-15T08:10:49;10.23;;;5.70;;
63259;SDS011;49390;51.380;0.098;2023-04-15T08:13:20;11.45;;;5.65;;
63259;SDS011;49390;51.380;0.098;2023-04-15T08:15:52;10.55;;;6.57;;
63259;SDS011;49390;51.380;0.098;2023-04-15T08:18:42;9.80;;;5.43;;
63259;SDS011;49390;51.380;0.098;2023-04-15T08:21:11;9.43;;;5.78;;
63259;SDS011;49390;51.380;0.098;2023-04-15T08:23:41;9.43;;;5.63;;
63259;SDS011;49390;51.380;0.098;2023-04-15T08:26:11;11.48;;;6.22;;
63259;SDS011;49390;51.380;0.098;2023-04-15T08:28:41;10.70;;;6.15;;
63259;SDS011;49390;51.380;0.098;2023-04-15T08:31:13;10.82;;;6.15;;
63259;SDS011;49390;51.380;0.098;2023-04-15T08:36:14;12.57;;;6.60;;
63259;SDS011;49390;51.380;0.098;2023-04-15T08:38:43;10.02;;;5.95;;
63259;SDS011;49390;51.380;0.098;2023-04-15T08:41:22;12.02;;;7.13;;
63259;SDS011;49390;51.380;0.098;2023-04-15T08:43:57;12.00;;;6.65;;
63259;SDS011;49390;51.380;0.098;2023-04-15T08:46:30;12.60;;;6.50;;
63259;SDS011;49390;51.380;0.098;2023-04-15T08:49:04;12.15;;;6.50;;
63259;SDS011;49390;51.380;0.098;2023-04-15T08:51:38;12.45;;;6.85;;
63259;SDS011;49390;51.380;0.098;2023-04-15T08:54:09;15.27;;;7.78;;
63259;SDS011;49390;51.380;0.098;2023-04-15T08:56:38;13.05;;;7.32;;
63259;SDS011;49390;51.380;0.098;2023-04-15T08:59:08;12.40;;;7.45;;
63259;SDS011;49390;51.380;0.098;2023-04-15T09:01:39;11.32;;;6.57;;
63259;SDS011;49390;51.380;0.098;2023-04-15T09:04:09;12.38;;;7.18;;
63259;SDS011;49390;51.380;0.098;2023-04-15T09:06:41;13.32;;;7.43;;
63259;SDS011;49390;51.380;0.098;2023-04-15T09:09:11;11.93;;;7.15;;
63259;SDS011;49390;51.380;0.098;2023-04-15T09:11:41;12.63;;;7.25;;
63259;SDS011;49390;51.380;0.098;2023-04-15T09:14:11;11.98;;;7.10;;
63259;SDS011;49390;51.380;0.098;2023-04-15T09:19:32;14.43;;;7.57;;
63259;SDS011;49390;51.380;0.098;2023-04-15T09:22:02;13.25;;;7.63;;
63259;SDS011;49390;51.380;0.098;2023-04-15T09:24:35;19.55;;;10.80;;
63259;SDS011;49390;51.380;0.098;2023-04-15T09:27:07;13.82;;;7.93;;
63259;SDS011;49390;51.380;0.098;2023-04-15T09:29:37;13.00;;;7.43;;
63259;SDS011;49390;51.380;0.098;2023-04-15T09:32:10;12.05;;;7.22;;
63259;SDS011;49390;51.380;0.098;2023-04-15T09:34:46;10.32;;;6.75;;
63259;SDS011;49390;51.380;0.098;2023-04-15T09:37:15;12.27;;;7.40;;
63259;SDS011;49390;51.380;0.098;2023-04-15T09:39:59;12.63;;;7.00;;
63259;SDS011;49390;51.380;0.098;2023-04-15T09:42:29;14.45;;;7.38;;
63259;SDS011;49390;51.380;0.098;2023-04-15T09:45:10;13.18;;;7.07;;
63259;SDS011;49390;51.380;0.098;2023-04-15T09:47:40;13.90;;;6.30;;
63259;SDS011;49390;51.380;0.098;2023-04-15T09:50:09;10.95;;;6.47;;
63259;SDS011;49390;51.380;0.098;2023-04-15T09:52:42;11.55;;;6.15;;
63259;SDS011;49390;51.380;0.098;2023-04-15T09:55:17;10.07;;;6.32;;
63259;SDS011;49390;51.380;0.098;2023-04-15T09:57:46;10.88;;;6.80;;
63259;SDS011;49390;51.380;0.098;2023-04-15T10:00:16;9.10;;;5.88;;
63259;SDS011;49390;51.380;0.098;2023-04-15T10:02:45;9.07;;;6.15;;
63259;SDS011;49390;51.380;0.098;2023-04-15T10:07:45;10.13;;;6.18;;
63259;SDS011;49390;51.380;0.098;2023-04-15T10:10:16;11.77;;;5.88;;
63259;SDS011;49390;51.380;0.098;2023-04-15T10:12:46;9.48;;;5.75;;
63259;SDS011;49390;51.380;0.098;2023-04-15T10:15:17;10.48;;;6.63;;
63259;SDS011;49390;51.380;0.098;2023-04-15T10:17:46;9.00;;;6.07;;
63259;SDS011;49390;51.380;0.098;2023-04-15T10:20:19;10.45;;;6.07;;
63259;SDS011;49390;51.380;0.098;2023-04-15T10:22:50;11.95;;;6.55;;
63259;SDS011;49390;51.380;0.098;2023-04-15T10:25:20;9.90;;;6.60;;
63259;SDS011;49390;51.380;0.098;2023-04-15T10:27:54;10.93;;;7.03;;
63259;SDS011;49390;51.380;0.098;2023-04-15T10:30:24;10.47;;;6.47;;
63259;SDS011;49390;51.380;0.098;2023-04-15T10:32:54;11.00;;;6.53;;
63259;SDS011;49390;51.380;0.098;2023-04-15T10:35:25;10.63;;;6.47;;
63259;SDS011;49390;51.380;0.098;2023-04-15T10:37:54;10.57;;;6.53;;
63259;SDS011;49390;51.380;0.098;2023-04-15T10:42:57;12.90;;;6.50;;
63259;SDS011;49390;51.380;0.098;2023-04-15T10:45:34;14.02;;;7.05;;
63259;SDS011;49390;51.380;0.098;2023-04-15T10:48:06;9.52;;;6.18;;
63259;SDS011;49390;51.380;0.098;2023-04-15T10:50:36;11.93;;;6.95;;
63259;SDS011;49390;51.380;0.098;2023-04-15T10:53:08;9.90;;;6.18;;
63259;SDS011;49390;51.380;0.098;2023-04-15T10:55:38;10.45;;;5.90;;
63259;SDS011;49390;51.380;0.098;2023-04-15T10:58:08;9.27;;;5.85;;
63259;SDS011;49390;51.380;0.098;2023-04-15T11:00:38;10.18;;;6.30;;
63259;SDS011;49390;51.380;0.098;2023-04-15T11:03:07;10.88;;;6.57;;
63259;SDS011;49390;51.380;0.098;2023-04-15T11:08:10;9.52;;;6.20;;
63259;SDS011;49390;51.380;0.098;2023-04-15T11:15:40;10.68;;;6.40;;
63259;SDS011;49390;51.380;0.098;2023-04-15T11:18:21;12.27;;;6.05;;
63259;SDS011;49390;51.380;0.098;2023-04-15T11:21:05;11.55;;;6.35;;
63259;SDS011;49390;51.380;0.098;2023-04-15T11:23:39;11.98;;;6.18;;
63259;SDS011;49390;51.380;0.098;2023-04-15T11:26:12;9.50;;;6.10;;
63259;SDS011;49390;51.380;0.098;2023-04-15T11:28:42;9.75;;;5.57;;
63259;SDS011;49390;51.380;0.098;2023-04-15T11:31:14;11.38;;;6.30;;
63259;SDS011;49390;51.380;0.098;2023-04-15T11:33:46;10.38;;;5.78;;
63259;SDS011;49390;51.380;0.098;2023-04-15T11:36:23;8.75;;;5.43;;
63259;SDS011;49390;51.380;0.098;2023-04-15T11:38:57;9.20;;;5.68;;
63259;SDS011;49390;51.380;0.098;2023-04-15T11:41:28;8.10;;;5.70;;
63259;SDS011;49390;51.380;0.098;2023-04-15T11:44:02;9.35;;;6.03;;
63259;SDS011;49390;51.380;0.098;2023-04-15T11:46:44;9.10;;;5.68;;
63259;SDS011;49390;51.380;0.098;2023-04-15T11:49:26;7.78;;;5.85;;
63259;SDS011;49390;51.380;0.098;2023-04-15T11:51:55;9.30;;;5.80;;
63259;SDS011;49390;51.380;0.098;2023-04-15T11:54:26;9.93;;;5.85;;
63259;SDS011;49390;51.380;0.098;2023-04-15T11:56:55;10.13;;;5.63;;
63259;SDS011;49390;51.380;0.098;2023-04-15T11:59:26;8.75;;;5.80;;
63259;SDS011;49390;51.380;0.098;2023-04-15T12:02:12;13.55;;;6.25;;
63259;SDS011;49390;51.380;0.098;2023-04-15T12:04:40;12.75;;;6.50;;
63259;SDS011;49390;51.380;0.098;2023-04-15T12:07:09;11.73;;;6.50;;
63259;SDS011;49390;51.380;0.098;2023-04-15T12:09:40;8.15;;;6.18;;
63259;SDS011;49390;51.380;0.098;2023-04-15T12:12:09;10.68;;;6.32;;
63259;SDS011;49390;51.380;0.098;2023-04-15T12:14:38;9.63;;;5.75;;
63259;SDS011;49390;51.380;0.098;2023-04-15T12:17:07;10.23;;;5.85;;
63259;SDS011;49390;51.380;0.098;2023-04-15T12:19:41;10.98;;;5.78;;
63259;SDS011;49390;51.380;0.098;2023-04-15T12:22:12;9.57;;;6.05;;
63259;SDS011;49390;51.380;0.098;2023-04-15T12:24:42;9.13;;;6.15;;
63259;SDS011;49390;51.380;0.098;2023-04-15T12:27:15;11.02;;;5.80;;
63259;SDS011;49390;51.380;0.098;2023-04-15T12:29:44;9.23;;;6.20;;
63259;SDS011;49390;51.380;0.098;2023-04-15T12:32:15;9.20;;;5.70;;
63259;SDS011;49390;51.380;0.098;2023-04-15T12:34:46;7.93;;;5.75;;
63259;SDS011;49390;51.380;0.098;2023-04-15T12:37:18;8.32;;;5.85;;
63259;SDS011;49390;51.380;0.098;2023-04-15T12:39:47;9.18;;;6.50;;
63259;SDS011;49390;51.380;0.098;2023-04-15T12:42:16;8.43;;;5.53;;
63259;SDS011;49390;51.380;0.098;2023-04-15T12:44:45;8.68;;;6.03;;
63259;SDS011;49390;51.380;0.098;2023-04-15T12:47:14;9.20;;;5.50;;
63259;SDS011;49390;51.380;0.098;2023-04-15T12:49:42;8.15;;;5.85;;
63259;SDS011;49390;51.380;0.098;2023-04-15T12:52:10;9.13;;;6.03;;
63259;SDS011;49390;51.380;0.098;2023-04-15T12:54:38;9.13;;;5.22;;
63259;SDS011;49390;51.380;0.098;2023-04-15T12:57:06;8.63;;;5.00;;
63259;SDS011;49390;51.380;0.098;2023-04-15T12:59:34;7.57;;;5.05;;
63259;SDS011;49390;51.380;0.098;2023-04-15T13:02:03;8.95;;;5.32;;
63259;SDS011;49390;51.380;0.098;2023-04-15T13:04:31;7.90;;;4.95;;
63259;SDS011;49390;51.380;0.098;2023-04-15T13:07:00;7.35;;;5.00;;
63259;SDS011;49390;51.380;0.098;2023-04-15T13:09:31;10.80;;;6.78;;
63259;SDS011;49390;51.380;0.098;2023-04-15T13:11:59;9.20;;;6.03;;
63259;SDS011;49390;51.380;0.098;2023-04-15T13:14:27;8.75;;;5.70;;
63259;SDS011;49390;51.380;0.098;2023-04-15T13:16:56;8.52;;;5.00;;
63259;SDS011;49390;51.380;0.098;2023-04-15T13:19:24;7.15;;;5.03;;
63259;SDS011;49390;51.380;0.098;2023-04-15T13:21:53;8.30;;;4.97;;
63259;SDS011;49390;51.380;0.098;2023-04-15T13:24:21;9.50;;;5.53;;
63259;SDS011;49390;51.380;0.098;2023-04-15T13:26:49;8.88;;;5.10;;
63259;SDS011;49390;51.380;0.098;2023-04-15T13:29:17;11.48;;;5.32;;
63259;SDS011;49390;51.380;0.098;2023-04-15T13:31:47;8.07;;;4.47;;
63259;SDS011;49390;51.380;0.098;2023-04-15T13:34:15;9.20;;;5.38;;
63259;SDS011;49390;51.380;0.098;2023-04-15T13:36:45;7.53;;;4.80;;
63259;SDS011;49390;51.380;0.098;2023-04-15T13:39:15;11.10;;;5.80;;
63259;SDS011;49390;51.380;0.098;2023-04-15T13:41:44;9.30;;;5.90;;
63259;SDS011;49390;51.380;0.098;2023-04-15T13:44:14;9.82;;;5.38;;
63259;SDS011;49390;51.380;0.098;2023-04-15T13:46:43;7.90;;;4.65;;
63259;SDS011;49390;51.380;0.098;2023-04-15T13:49:11;6.80;;;4.55;;
63259;SDS011;49390;51.380;0.098;2023-04-15T13:51:46;8.18;;;5.30;;
63259;SDS011;49390;51.380;0.098;2023-04-15T13:54:16;6.65;;;4.88;;
63259;SDS011;49390;51.380;0.098;2023-04-15T13:56:44;7.88;;;4.57;;
63259;SDS011;49390;51.380;0.098;2023-04-15T13:59:14;8.65;;;4.57;;
63259;SDS011;49390;51.380;0.098;2023-04-15T14:01:43;8.30;;;4.35;;
63259;SDS011;49390;51.380;0.098;2023-04-15T14:04:11;7.75;;;4.75;;
63259;SDS011;49390;51.380;0.098;2023-04-15T14:06:40;7.93;;;4.57;;
63259;SDS011;49390;51.380;0.098;2023-04-15T14:09:08;8.00;;;4.97;;
63259;SDS011;49390;51.380;0.098;2023-04-15T14:11:37;7.75;;;4.80;;
63259;SDS011;49390;51.380;0.098;2023-04-15T14:14:05;10.43;;;4.80;;
63259;SDS011;49390;51.380;0.098;2023-04-15T14:16:33;10.10;;;4.88;;
63259;SDS011;49390;51.380;0.098;2023-04-15T14:19:02;8.05;;;4.70;;
63259;SDS011;49390;51.380;0.098;2023-04-15T14:21:30;10.23;;;4.65;;
63259;SDS011;49390;51.380;0.098;2023-04-15T14:23:58;7.90;;;5.05;;
63259;SDS011;49390;51.380;0.098;2023-04-15T14:26:29;9.65;;;4.75;;
63259;SDS011;49390;51.380;0.098;2023-04-15T14:28:57;8.98;;;4.63;;
63259;SDS011;49390;51.380;0.098;2023-04-15T14:31:26;8.63;;;5.05;;
63259;SDS011;49390;51.380;0.098;2023-04-15T14:33:54;7.63;;;4.32;;
63259;SDS011;49390;51.380;0.098;2023-04-15T14:36:22;6.50;;;4.45;;
63259;SDS011;49390;51.380;0.098;2023-04-15T14:38:50;7.65;;;4.65;;
63259;SDS011;49390;51.380;0.098;2023-04-15T14:41:18;8.85;;;4.70;;
63259;SDS011;49390;51.380;0.098;2023-04-15T14:43:46;8.13;;;4.68;;
63259;SDS011;49390;51.380;0.098;2023-04-15T14:46:14;9.90;;;5.00;;
63259;SDS011;49390;51.380;0.098;2023-04-15T14:48:42;8.07;;;4.90;;
63259;SDS011;49390;51.380;0.098;2023-04-15T14:51:10;7.57;;;5.28;;
63259;SDS011;49390;51.380;0.098;2023-04-15T14:53:38;6.97;;;4.53;;
63259;SDS011;49390;51.380;0.098;2023-04-15T14:56:07;10.20;;;5.53;;
63259;SDS011;49390;51.380;0.098;2023-04-15T14:58:35;7.75;;;5.38;;
63259;SDS011;49390;51.380;0.098;2023-04-15T15:01:03;7.32;;;5.20;;
63259;SDS011;49390;51.380;0.098;2023-04-15T15:03:31;7.43;;;4.90;;
63259;SDS011;49390;51.380;0.098;2023-04-15T15:06:00;8.63;;;4.85;;
63259;SDS011;49390;51.380;0.098;2023-04-15T15:08:28;7.38;;;4.95;;
63259;SDS011;49390;51.380;0.098;2023-04-15T15:10:56;8.65;;;5.10;;
63259;SDS011;49390;51.380;0.098;2023-04-15T15:13:24;6.97;;;4.75;;
63259;SDS011;49390;51.380;0.098;2023-04-15T15:15:53;9.13;;;5.10;;
63259;SDS011;49390;51.380;0.098;2023-04-15T15:18:21;9.93;;;5.45;;
63259;SDS011;49390;51.380;0.098;2023-04-15T15:20:49;8.30;;;4.72;;
63259;SDS011;49390;51.380;0.098;2023-04-15T15:23:17;9.82;;;5.15;;
63259;SDS011;49390;51.380;0.098;2023-04-15T15:25:45;9.70;;;5.10;;
63259;SDS011;49390;51.380;0.098;2023-04-15T15:28:16;9.57;;;5.53;;